createdAt,value
2022-12-25T00:02:26.936Z,96265.63
2022-12-25T00:04:53.665Z,96266.72
2022-12-25T00:07:20.311Z,96269.56
2022-12-25T00:09:46.980Z,96257.09
2022-12-25T00:12:13.611Z,96253.84
2022-12-25T00:14:40.246Z,96257.19
2022-12-25T00:17:06.885Z,96252.28
2022-12-25T00:19:33.601Z,96255.84
2022-12-25T00:22:00.253Z,96245.81
2022-12-25T00:24:26.922Z,96252.31
2022-12-25T00:26:53.504Z,96267.09
2022-12-25T00:29:20.182Z,96264.16
2022-12-25T00:31:46.865Z,96266.28
2022-12-25T00:34:13.570Z,96276.06
2022-12-25T00:36:42.259Z,96280.28
2022-12-25T00:39:09.585Z,96278.66
2022-12-25T00:41:54.801Z,96291.53
2022-12-25T00:44:21.427Z,96272.88
2022-12-25T00:46:48.176Z,96281.53
2022-12-25T00:49:14.861Z,96275.81
2022-12-25T00:51:41.528Z,96272.38
2022-12-25T00:54:08.547Z,96278.31
2022-12-25T00:56:35.346Z,96272.88
2022-12-25T00:59:02.020Z,96279.28
2022-12-25T01:01:28.766Z,96277.06
2022-12-25T01:03:55.572Z,96274.38
2022-12-25T01:06:22.249Z,96289.56
2022-12-25T01:09:07.162Z,96290.19
2022-12-25T01:11:33.921Z,96291.31
2022-12-25T01:14:00.604Z,96290.44
2022-12-25T01:16:28.224Z,96278.94
2022-12-25T01:18:55.546Z,96289.72
2022-12-25T01:21:22.602Z,96285.28
2022-12-25T01:23:51.157Z,96282.31
2022-12-25T01:26:19.184Z,96284.91
2022-12-25T01:28:45.865Z,96284.16
2022-12-25T01:31:15.554Z,96280.59
2022-12-25T01:33:44.153Z,96281.31
2022-12-25T01:36:20.440Z,96280.72
2022-12-25T01:38:48.096Z,96288.25
2022-12-25T01:41:16.613Z,96284.69
2022-12-25T01:44:02.707Z,96278.34
2022-12-25T01:46:30.422Z,96291.22
2022-12-25T01:49:01.476Z,96272.06
2022-12-25T01:51:44.251Z,96278.47
2022-12-25T01:54:31.636Z,96269.94
2022-12-25T01:57:01.931Z,96266.50
2022-12-25T01:59:29.768Z,96265.84
2022-12-25T02:01:57.705Z,96274.38
2022-12-25T02:04:39.319Z,96264.47
2022-12-25T02:07:14.656Z,96271.53
2022-12-25T02:09:41.731Z,96256.34
2022-12-25T02:12:13.925Z,96263.66
2022-12-25T02:14:40.937Z,96255.94
2022-12-25T02:17:19.127Z,96246.94
2022-12-25T02:19:57.855Z,96252.09
2022-12-25T02:22:50.341Z,96251.47
2022-12-25T02:25:58.615Z,96252.34
2022-12-25T02:28:32.656Z,96249.63
2022-12-25T02:31:10.679Z,96247.66
2022-12-25T02:34:19.125Z,96257.03
2022-12-25T02:36:49.475Z,96244.56
2022-12-25T02:39:47.607Z,96252.84
2022-12-25T02:42:50.273Z,96253.69
2022-12-25T02:45:41.811Z,96262.75
2022-12-25T02:48:29.777Z,96263.84
2022-12-25T02:51:15.947Z,96261.00
2022-12-25T02:54:04.016Z,96258.28
2022-12-25T02:56:50.787Z,96255.44
2022-12-25T02:59:38.288Z,96253.09
2022-12-25T03:02:25.094Z,96254.31
2022-12-25T03:05:13.937Z,96257.88
2022-12-25T03:07:43.129Z,96258.53
2022-12-25T03:10:31.918Z,96257.53
2022-12-25T03:13:06.249Z,96254.81
2022-12-25T03:15:53.195Z,96255.69
2022-12-25T03:18:24.504Z,96255.78
2022-12-25T03:21:11.051Z,96253.06
2022-12-25T03:23:58.925Z,96249.56
2022-12-25T03:26:45.795Z,96253.19
2022-12-25T03:29:35.707Z,96248.84
2022-12-25T03:32:24.089Z,96247.38
2022-12-25T03:35:25.840Z,96243.78
2022-12-25T03:38:44.146Z,96239.44
2022-12-25T03:41:53.836Z,96240.22
2022-12-25T03:45:05.740Z,96230.31
2022-12-25T03:47:58.338Z,96230.53
2022-12-25T03:50:58.011Z,96232.63
2022-12-25T03:53:51.486Z,96227.22
2022-12-25T03:56:37.774Z,96239.97
2022-12-25T03:59:24.099Z,96228.47
2022-12-25T04:02:11.018Z,96225.00
2022-12-25T04:04:56.674Z,96221.66
2022-12-25T04:07:41.955Z,96220.19
2022-12-25T04:10:27.803Z,96215.31
2022-12-25T04:13:13.081Z,96216.06
2022-12-25T04:15:58.610Z,96211.00
2022-12-25T04:18:43.927Z,96220.28
2022-12-25T04:21:29.316Z,96221.00
2022-12-25T04:24:14.590Z,96222.50
2022-12-25T04:27:00.083Z,96223.25
2022-12-25T04:29:45.548Z,96221.66
2022-12-25T04:32:30.740Z,96222.59
2022-12-25T04:35:16.060Z,96226.19
2022-12-25T04:37:42.753Z,96214.72
2022-12-25T04:40:09.850Z,96215.97
2022-12-25T04:42:36.662Z,96226.59
2022-12-25T04:45:03.634Z,96218.06
2022-12-25T04:47:30.425Z,96228.81
2022-12-25T04:49:57.053Z,96225.22
2022-12-25T04:52:23.707Z,96222.25
2022-12-25T04:54:50.414Z,96210.88
2022-12-25T04:57:17.174Z,96202.63
2022-12-25T04:59:43.825Z,96200.66
2022-12-25T05:02:10.636Z,96198.81
2022-12-25T05:04:37.365Z,96197.69
2022-12-25T05:07:04.056Z,96192.72
2022-12-25T05:09:30.746Z,96198.31
2022-12-25T05:11:57.390Z,96203.25
2022-12-25T05:14:24.063Z,96211.53
2022-12-25T05:16:50.797Z,96226.50
2022-12-25T05:19:17.501Z,96216.47
2022-12-25T05:21:44.132Z,96216.59
2022-12-25T05:24:10.842Z,96205.22
2022-12-25T05:26:37.419Z,96206.09
2022-12-25T05:29:04.044Z,96204.84
2022-12-25T05:31:30.706Z,96218.44
2022-12-25T05:33:57.401Z,96209.06
2022-12-25T05:36:24.046Z,96209.19
2022-12-25T05:38:50.788Z,96207.81
2022-12-25T05:41:17.620Z,96200.16
2022-12-25T05:43:44.702Z,96194.47
2022-12-25T05:46:13.159Z,96192.34
2022-12-25T05:48:40.090Z,96204.09
2022-12-25T05:51:09.268Z,96207.31
2022-12-25T05:53:43.821Z,96202.13
2022-12-25T05:56:11.193Z,96200.25
2022-12-25T05:58:39.388Z,96197.53
2022-12-25T06:01:20.401Z,96202.56
2022-12-25T06:03:47.636Z,96197.81
2022-12-25T06:06:14.726Z,96209.53
2022-12-25T06:08:41.854Z,96210.06
2022-12-25T06:11:09.495Z,96211.53
2022-12-25T06:13:36.852Z,96202.13
2022-12-25T06:16:05.171Z,96204.34
2022-12-25T06:18:31.883Z,96200.75
2022-12-25T06:20:58.536Z,96192.97
2022-12-25T06:23:25.208Z,96200.16
2022-12-25T06:25:51.842Z,96190.84
2022-12-25T06:28:18.486Z,96195.19
2022-12-25T06:30:45.111Z,96192.34
2022-12-25T06:33:11.966Z,96196.03
2022-12-25T06:35:40.332Z,96194.69
2022-12-25T06:38:06.927Z,96195.28
2022-12-25T06:40:34.764Z,96206.78
2022-12-25T06:43:01.533Z,96203.09
2022-12-25T06:45:28.285Z,96196.66
2022-12-25T06:47:54.931Z,96193.09
2022-12-25T06:50:21.805Z,96202.34
2022-12-25T06:52:48.437Z,96204.59
2022-12-25T06:55:15.173Z,96196.44
2022-12-25T06:57:41.777Z,96199.63
2022-12-25T07:00:09.100Z,96200.38
2022-12-25T07:02:38.636Z,96208.78
2022-12-25T07:05:05.831Z,96206.06
2022-12-25T07:07:32.495Z,96193.47
2022-12-25T07:09:59.174Z,96206.69
2022-12-25T07:12:25.884Z,96200.25
2022-12-25T07:14:54.833Z,96189.88
2022-12-25T07:17:22.533Z,96195.94
2022-12-25T07:19:49.401Z,96195.19
2022-12-25T07:22:16.857Z,96188.41
2022-12-25T07:24:43.567Z,96191.25
2022-12-25T07:27:10.330Z,96195.06
2022-12-25T07:29:36.983Z,96190.13
2022-12-25T07:32:03.881Z,96180.84
2022-12-25T07:34:30.580Z,96171.97
2022-12-25T07:36:57.237Z,96184.31
2022-12-25T07:39:24.037Z,96192.72
2022-12-25T07:41:51.453Z,96201.38
2022-12-25T07:44:18.380Z,96186.78
2022-12-25T07:46:45.312Z,96191.25
2022-12-25T07:49:12.619Z,96199.53
2022-12-25T07:51:39.320Z,96189.75
2022-12-25T07:54:06.326Z,96188.25
2022-12-25T07:56:33.136Z,96197.94
2022-12-25T07:58:59.827Z,96183.09
2022-12-25T08:01:27.783Z,96192.97
2022-12-25T08:03:57.115Z,96192.22
2022-12-25T08:06:29.937Z,96190.13
2022-12-25T08:09:11.844Z,96188.13
2022-12-25T08:11:39.067Z,96190.34
2022-12-25T08:14:07.300Z,96178.34
2022-12-25T08:16:34.459Z,96164.53
2022-12-25T08:19:01.865Z,96179.09
2022-12-25T08:21:28.516Z,96177.09
2022-12-25T08:23:55.175Z,96189.31
2022-12-25T08:26:23.147Z,96166.44
2022-12-25T08:28:50.414Z,96173.84
2022-12-25T08:31:22.915Z,96182.19
2022-12-25T08:33:51.908Z,96193.06
2022-12-25T08:36:19.405Z,96176.19
2022-12-25T08:38:47.217Z,96182.13
2022-12-25T08:41:15.440Z,96179.38
2022-12-25T08:43:42.246Z,96188.03
2022-12-25T08:46:09.652Z,96176.25
2022-12-25T08:48:37.153Z,96172.75
2022-12-25T08:51:04.921Z,96170.88
2022-12-25T08:53:32.161Z,96178.88
2022-12-25T08:56:01.600Z,96174.81
2022-12-25T08:58:28.740Z,96174.91
2022-12-25T09:00:55.851Z,96165.81
2022-12-25T09:03:23.600Z,96148.00
2022-12-25T09:05:50.817Z,96165.53
2022-12-25T09:08:17.729Z,96155.81
2022-12-25T09:10:44.355Z,96153.19
2022-12-25T09:13:12.893Z,96147.69
2022-12-25T09:15:40.122Z,96157.22
2022-12-25T09:18:06.868Z,96147.81
2022-12-25T09:20:33.529Z,96149.19
2022-12-25T09:23:00.260Z,96160.25
2022-12-25T09:25:27.209Z,96154.13
2022-12-25T09:27:56.210Z,96148.63
2022-12-25T09:30:22.833Z,96142.41
2022-12-25T09:32:49.520Z,96162.78
2022-12-25T09:35:18.496Z,96144.59
2022-12-25T09:37:45.390Z,96153.47
2022-12-25T09:40:21.343Z,96160.94
2022-12-25T09:42:49.468Z,96153.97
2022-12-25T09:45:35.944Z,96151.50
2022-12-25T09:48:03.030Z,96153.94
2022-12-25T09:50:52.017Z,96135.75
2022-12-25T09:53:35.781Z,96128.75
2022-12-25T09:56:25.632Z,96135.41
2022-12-25T09:58:53.596Z,96125.59
2022-12-25T10:01:34.389Z,96133.69
2022-12-25T10:04:07.210Z,96143.81
2022-12-25T10:07:01.850Z,96136.94
2022-12-25T10:09:49.558Z,96131.44
2022-12-25T10:12:27.251Z,96143.88
2022-12-25T10:15:07.087Z,96130.97
2022-12-25T10:18:16.333Z,96136.53
2022-12-25T10:20:51.069Z,96137.53
2022-12-25T10:23:55.424Z,96139.31
2022-12-25T10:26:25.293Z,96127.34
2022-12-25T10:29:26.513Z,96127.63
2022-12-25T10:31:55.581Z,96124.03
2022-12-25T10:34:23.533Z,96120.72
2022-12-25T10:36:51.016Z,96113.00
2022-12-25T10:39:25.663Z,96109.47
2022-12-25T10:42:29.457Z,96101.94
2022-12-25T10:45:02.122Z,96085.63
2022-12-25T10:47:33.050Z,96083.75
2022-12-25T10:50:01.530Z,96091.03
2022-12-25T10:52:29.591Z,96087.63
2022-12-25T10:54:56.857Z,96098.50
2022-12-25T10:57:25.566Z,96080.81
2022-12-25T10:59:58.139Z,96065.69
2022-12-25T11:02:28.274Z,96060.06
2022-12-25T11:05:05.751Z,96069.19
2022-12-25T11:07:33.782Z,96077.19
2022-12-25T11:10:05.550Z,96068.06
2022-12-25T11:12:41.833Z,96071.16
2022-12-25T11:15:39.735Z,96072.63
2022-12-25T11:18:15.192Z,96066.44
2022-12-25T11:20:58.876Z,96074.47
2022-12-25T11:23:27.691Z,96060.00
2022-12-25T11:26:06.101Z,96052.50
2022-12-25T11:28:38.769Z,96046.22
2022-12-25T11:31:09.701Z,96055.03
2022-12-25T11:33:42.851Z,96043.75
2022-12-25T11:36:22.983Z,96040.34
2022-12-25T11:38:50.969Z,96041.19
2022-12-25T11:41:20.820Z,96036.94
2022-12-25T11:43:54.288Z,96026.69
2022-12-25T11:46:41.106Z,96030.91
2022-12-25T11:49:14.516Z,96024.28
2022-12-25T11:51:44.882Z,96023.06
2022-12-25T11:54:20.155Z,96031.97
2022-12-25T11:56:46.842Z,96017.66
2022-12-25T11:59:20.565Z,96019.94
2022-12-25T12:01:52.927Z,96013.41
2022-12-25T12:04:36.885Z,96008.72
2022-12-25T12:07:25.122Z,96002.44
2022-12-25T12:10:11.220Z,95997.56
2022-12-25T12:12:54.854Z,96008.31
2022-12-25T12:15:27.893Z,95997.63
2022-12-25T12:17:54.967Z,95999.19
2022-12-25T12:20:29.368Z,95990.00
2022-12-25T12:22:56.813Z,95990.00
2022-12-25T12:25:23.663Z,95991.47
2022-12-25T12:28:04.873Z,95990.31
2022-12-25T12:30:38.227Z,95975.34
2022-12-25T12:33:07.863Z,95973.88
2022-12-25T12:35:38.811Z,95977.69
2022-12-25T12:38:12.051Z,95971.41
2022-12-25T12:41:01.705Z,95966.50
2022-12-25T12:43:46.687Z,95962.25
2022-12-25T12:46:27.935Z,95958.63
2022-12-25T12:49:21.936Z,95963.78
2022-12-25T12:51:49.415Z,95958.06
2022-12-25T12:54:23.698Z,95956.00
2022-12-25T12:57:01.295Z,95942.84
2022-12-25T12:59:38.182Z,95954.59
2022-12-25T13:02:38.820Z,95950.28
2022-12-25T13:05:29.073Z,95955.13
2022-12-25T13:08:14.086Z,95961.06
2022-12-25T13:10:46.891Z,95953.13
2022-12-25T13:13:21.395Z,95944.53
2022-12-25T13:15:50.600Z,95949.31
2022-12-25T13:18:18.020Z,95950.94
2022-12-25T13:20:55.121Z,95956.75
2022-12-25T13:23:28.086Z,95961.00
2022-12-25T13:26:01.949Z,95950.19
2022-12-25T13:28:36.534Z,95948.72
2022-12-25T13:31:25.388Z,95943.75
2022-12-25T13:34:36.809Z,95943.06
2022-12-25T13:37:09.601Z,95930.81
2022-12-25T13:39:38.504Z,95915.63
2022-12-25T13:42:07.074Z,95914.88
2022-12-25T13:44:40.122Z,95929.28
2022-12-25T13:47:15.970Z,95927.06
2022-12-25T13:49:42.691Z,95926.25
2022-12-25T13:52:20.348Z,95932.78
2022-12-25T13:55:05.092Z,95937.69
2022-12-25T13:57:36.037Z,95946.94
2022-12-25T14:00:04.406Z,95938.28
2022-12-25T14:02:36.235Z,95936.06
2022-12-25T14:05:27.264Z,95939.69
2022-12-25T14:07:55.664Z,95949.66
2022-12-25T14:10:25.537Z,95940.03
2022-12-25T14:12:54.614Z,95941.06
2022-12-25T14:15:23.034Z,95935.28
2022-12-25T14:17:52.800Z,95925.00
2022-12-25T14:20:54.835Z,95930.88
2022-12-25T14:23:21.598Z,95930.72
2022-12-25T14:28:22.346Z,95934.38
2022-12-25T14:30:49.456Z,95931.44
2022-12-25T14:33:20.325Z,95933.34
2022-12-25T14:35:48.069Z,95935.47
2022-12-25T14:38:27.483Z,95939.16
2022-12-25T14:41:26.090Z,95939.06
2022-12-25T14:43:56.131Z,95939.72
2022-12-25T14:46:29.371Z,95932.53
2022-12-25T14:49:07.219Z,95938.81
2022-12-25T14:51:38.255Z,95946.53
2022-12-25T14:54:23.341Z,95941.28
2022-12-25T14:56:52.898Z,95934.09
2022-12-25T14:59:24.659Z,95944.22
2022-12-25T15:01:55.821Z,95951.28
2022-12-25T15:04:23.923Z,95951.78
2022-12-25T15:07:07.179Z,95943.03
2022-12-25T15:09:36.066Z,95935.63
2022-12-25T15:12:03.033Z,95936.34
2022-12-25T15:14:31.574Z,95949.66
2022-12-25T15:17:01.347Z,95935.00
2022-12-25T15:19:36.936Z,95925.03
2022-12-25T15:22:03.975Z,95931.25
2022-12-25T15:24:30.725Z,95930.13
2022-12-25T15:27:00.368Z,95924.41
2022-12-25T15:32:22.955Z,95937.38
2022-12-25T15:34:50.282Z,95942.94
2022-12-25T15:37:19.823Z,95929.63
2022-12-25T15:39:46.877Z,95946.03
2022-12-25T15:42:21.384Z,95942.53
2022-12-25T15:44:48.137Z,95941.38
2022-12-25T15:47:17.639Z,95949.47
2022-12-25T15:49:44.298Z,95940.66
2022-12-25T15:52:13.978Z,95929.78
2022-12-25T15:54:40.642Z,95940.47
2022-12-25T15:57:15.855Z,95948.31
2022-12-25T15:59:42.517Z,95946.19
2022-12-25T16:02:21.155Z,95942.59
2022-12-25T16:04:48.967Z,95942.25
2022-12-25T16:07:18.390Z,95938.00
2022-12-25T16:09:45.394Z,95944.19
2022-12-25T16:12:12.251Z,95958.47
2022-12-25T16:14:38.913Z,95948.44
2022-12-25T16:17:05.931Z,95951.22
2022-12-25T16:19:32.603Z,95932.94
2022-12-25T16:21:59.458Z,95950.97
2022-12-25T16:24:26.219Z,95940.13
2022-12-25T16:26:52.893Z,95942.13
2022-12-25T16:29:19.541Z,95946.94
2022-12-25T16:31:46.274Z,95943.38
2022-12-25T16:34:13.011Z,95951.13
2022-12-25T16:36:39.616Z,95949.59
2022-12-25T16:39:06.881Z,95960.53
2022-12-25T16:41:33.576Z,95961.91
2022-12-25T16:44:09.208Z,95966.06
2022-12-25T16:46:37.460Z,95959.53
2022-12-25T16:49:04.386Z,95972.72
2022-12-25T16:51:31.463Z,95971.25
2022-12-25T16:53:58.309Z,95963.97
2022-12-25T16:56:27.092Z,95960.75
2022-12-25T16:58:56.315Z,95963.59
2022-12-25T17:01:23.656Z,95960.47
2022-12-25T17:03:51.496Z,95963.47
2022-12-25T17:06:27.025Z,95970.69
2022-12-25T17:08:57.179Z,95979.94
2022-12-25T17:11:27.415Z,95964.94
2022-12-25T17:13:54.465Z,95961.47
2022-12-25T17:16:27.295Z,95971.69
2022-12-25T17:19:01.492Z,95963.31
2022-12-25T17:21:29.814Z,95964.31
2022-12-25T17:24:02.239Z,95969.38
2022-12-25T17:26:30.223Z,95961.38
2022-12-25T17:28:57.372Z,95950.41
2022-12-25T17:31:24.289Z,95940.81
2022-12-25T17:33:50.981Z,95960.25
2022-12-25T17:36:19.820Z,95943.66
2022-12-25T17:38:47.705Z,95948.97
2022-12-25T17:41:17.080Z,95959.34
2022-12-25T17:43:45.829Z,95945.53
2022-12-25T17:46:22.188Z,95944.50
2022-12-25T17:48:50.272Z,95949.78
2022-12-25T17:51:21.432Z,95954.56
2022-12-25T17:53:51.652Z,95948.13
2022-12-25T17:56:19.609Z,95957.22
2022-12-25T17:58:54.082Z,95948.47
2022-12-25T18:01:22.436Z,95949.53
2022-12-25T18:03:50.114Z,95953.03
2022-12-25T18:06:20.408Z,95952.19
2022-12-25T18:08:47.271Z,95957.91
2022-12-25T18:11:23.290Z,95972.13
2022-12-25T18:13:52.315Z,95976.25
2022-12-25T18:16:24.437Z,95977.41
2022-12-25T18:18:52.999Z,95975.06
2022-12-25T18:21:21.871Z,95988.88
2022-12-25T18:23:49.309Z,95988.16
2022-12-25T18:26:16.823Z,95990.84
2022-12-25T18:28:44.011Z,95977.66
2022-12-25T18:31:15.178Z,95992.56
2022-12-25T18:33:42.585Z,96005.44
2022-12-25T18:36:10.911Z,95995.94
2022-12-25T18:38:37.619Z,95994.34
2022-12-25T18:41:06.604Z,95988.75
2022-12-25T18:43:53.847Z,95996.19
2022-12-25T18:46:22.409Z,95998.94
2022-12-25T18:48:49.387Z,95986.72
2022-12-25T18:51:16.140Z,95996.00
2022-12-25T18:53:43.753Z,96008.84
2022-12-25T18:56:15.200Z,96001.69
2022-12-25T18:58:41.941Z,95995.16
2022-12-25T19:01:12.790Z,95995.88
2022-12-25T19:03:39.578Z,96002.81
2022-12-25T19:06:06.806Z,95999.88
2022-12-25T19:08:33.477Z,95998.28
2022-12-25T19:11:00.169Z,96003.66
2022-12-25T19:13:27.172Z,95996.50
2022-12-25T19:15:58.540Z,95988.25
2022-12-25T19:18:25.516Z,95992.28
2022-12-25T19:20:52.187Z,95998.50
2022-12-25T19:23:18.826Z,95998.00
2022-12-25T19:25:45.636Z,96000.31
2022-12-25T19:28:12.449Z,95997.69
2022-12-25T19:30:39.086Z,96004.34
2022-12-25T19:33:07.402Z,96009.53
2022-12-25T19:35:39.382Z,96006.03
2022-12-25T19:38:06.065Z,96002.47
2022-12-25T19:40:37.339Z,96020.47
2022-12-25T19:43:03.995Z,96022.28
2022-12-25T19:45:30.708Z,96008.16
2022-12-25T19:47:58.352Z,96008.16
2022-12-25T19:50:30.791Z,96011.00
2022-12-25T19:52:58.127Z,96009.06
2022-12-25T19:55:24.773Z,96012.69
2022-12-25T19:57:51.484Z,96012.78
2022-12-25T20:00:18.350Z,96013.69
2022-12-25T20:02:45.147Z,95995.66
2022-12-25T20:05:11.925Z,96010.09
2022-12-25T20:07:38.587Z,96004.19
2022-12-25T20:10:05.642Z,96009.06
2022-12-25T20:12:32.290Z,95999.88
2022-12-25T20:14:58.948Z,96016.22
2022-12-25T20:17:25.612Z,95993.97
2022-12-25T20:19:52.285Z,95998.06
2022-12-25T20:22:18.989Z,96005.13
2022-12-25T20:24:47.801Z,96005.78
2022-12-25T20:27:14.480Z,96015.25
2022-12-25T20:29:41.182Z,96016.94
2022-12-25T20:32:07.846Z,96022.84
2022-12-25T20:34:34.557Z,96028.09
2022-12-25T20:37:01.614Z,96015.22
2022-12-25T20:39:28.306Z,96023.97
2022-12-25T20:41:55.236Z,96018.91
2022-12-25T20:44:55.633Z,96022.28
2022-12-25T20:47:22.295Z,96040.41
2022-12-25T20:49:48.984Z,96028.81
2022-12-25T20:52:15.634Z,96032.19
2022-12-25T20:54:42.528Z,96018.88
2022-12-25T20:57:09.604Z,96020.00
2022-12-25T20:59:37.895Z,96030.53
2022-12-25T21:02:05.106Z,96024.84
2022-12-25T21:04:31.971Z,96023.47
2022-12-25T21:06:58.573Z,96032.53
2022-12-25T21:09:25.333Z,96025.34
2022-12-25T21:11:52.643Z,96038.72
2022-12-25T21:14:19.282Z,96030.06
2022-12-25T21:16:46.126Z,96043.50
2022-12-25T21:19:13.902Z,96041.06
2022-12-25T21:21:42.853Z,96038.03
2022-12-25T21:24:10.628Z,96046.88
2022-12-25T21:26:39.893Z,96046.16
2022-12-25T21:29:09.369Z,96053.22
2022-12-25T21:31:56.738Z,96060.41
2022-12-25T21:34:23.416Z,96056.50
2022-12-25T21:36:50.038Z,96067.59
2022-12-25T21:39:16.722Z,96072.72
2022-12-25T21:41:43.408Z,96073.91
2022-12-25T21:44:10.940Z,96077.16
2022-12-25T21:46:37.698Z,96082.56
2022-12-25T21:49:04.412Z,96090.69
2022-12-25T21:51:52.304Z,96100.72
2022-12-25T21:54:21.088Z,96095.13
2022-12-25T21:56:49.693Z,96101.44
2022-12-25T21:59:19.338Z,96110.84
2022-12-25T22:01:47.027Z,96095.75
2022-12-25T22:04:15.821Z,96101.44
2022-12-25T22:07:02.094Z,96100.63
2022-12-25T22:09:28.896Z,96102.81
2022-12-25T22:12:15.341Z,96104.66
2022-12-25T22:14:54.671Z,96099.38
2022-12-25T22:17:45.782Z,96115.41
2022-12-25T22:20:28.340Z,96113.94
2022-12-25T22:22:55.173Z,96102.22
2022-12-25T22:25:24.027Z,96125.91
2022-12-25T22:27:51.667Z,96119.44
2022-12-25T22:30:24.064Z,96110.78
2022-12-25T22:32:52.343Z,96119.97
2022-12-25T22:35:20.355Z,96120.63
2022-12-25T22:37:47.166Z,96110.38
2022-12-25T22:40:16.485Z,96121.78
2022-12-25T22:42:43.503Z,96101.97
2022-12-25T22:45:11.109Z,96117.38
2022-12-25T22:47:37.937Z,96109.34
2022-12-25T22:50:05.243Z,96110.72
2022-12-25T22:52:31.911Z,96112.00
2022-12-25T22:54:58.578Z,96116.97
2022-12-25T22:57:25.296Z,96121.19
2022-12-25T22:59:53.055Z,96108.09
2022-12-25T23:02:20.179Z,96102.84
2022-12-25T23:04:47.053Z,96113.16
2022-12-25T23:07:14.647Z,96112.44
2022-12-25T23:09:42.834Z,96117.09
2022-12-25T23:12:33.026Z,96115.94
2022-12-25T23:14:59.760Z,96106.44
2022-12-25T23:17:45.085Z,96101.81
2022-12-25T23:20:33.498Z,96110.03
2022-12-25T23:23:18.905Z,96107.59
2022-12-25T23:26:04.215Z,96105.09
2022-12-25T23:28:49.536Z,96109.81
2022-12-25T23:31:16.487Z,96106.22
2022-12-25T23:33:43.143Z,96113.50
2022-12-25T23:36:10.035Z,96108.09
2022-12-25T23:38:36.671Z,96116.53
2022-12-25T23:41:03.387Z,96116.72
2022-12-25T23:43:30.229Z,96109.34
2022-12-25T23:45:56.904Z,96111.03
2022-12-25T23:48:23.541Z,96102.78
2022-12-25T23:50:50.230Z,96114.25
2022-12-25T23:53:16.900Z,96102.44
2022-12-25T23:55:43.582Z,96103.91
2022-12-25T23:58:10.389Z,96098.75
